sensor_id;sensor_type;location;lat;lon;timestamp;temperature;humidity
65406;DHT22;52016;51.228;-2.322;2022-12-10T00:00:30;0.00;77.50
65406;DHT22;52016;51.228;-2.322;2022-12-10T00:04:13;0.00;77.60
65406;DHT22;52016;51.228;-2.322;2022-12-10T00:07:55;0.00;77.50
65406;DHT22;52016;51.228;-2.322;2022-12-10T00:11:39;0.00;77.70
65406;DHT22;52016;51.228;-2.322;2022-12-10T00:15:21;-0.10;77.50
65406;DHT22;52016;51.228;-2.322;2022-12-10T00:19:04;-0.10;77.50
65406;DHT22;52016;51.228;-2.322;2022-12-10T00:22:46;-0.10;77.70
65406;DHT22;52016;51.228;-2.322;2022-12-10T00:26:31;-0.20;77.80
65406;DHT22;52016;51.228;-2.322;2022-12-10T00:30:13;-0.20;77.50
65406;DHT22;52016;51.228;-2.322;2022-12-10T00:33:56;-0.30;77.80
65406;DHT22;52016;51.228;-2.322;2022-12-10T00:37:39;-0.30;77.70
65406;DHT22;52016;51.228;-2.322;2022-12-10T00:41:21;-0.40;77.70
65406;DHT22;52016;51.228;-2.322;2022-12-10T00:45:04;-0.30;77.80
65406;DHT22;52016;51.228;-2.322;2022-12-10T00:48:46;-0.40;77.60
65406;DHT22;52016;51.228;-2.322;2022-12-10T00:52:28;-0.40;77.70
65406;DHT22;52016;51.228;-2.322;2022-12-10T00:56:12;-0.40;77.70
65406;DHT22;52016;51.228;-2.322;2022-12-10T00:59:54;-0.40;77.70
65406;DHT22;52016;51.228;-2.322;2022-12-10T01:03:37;-0.40;78.00
65406;DHT22;52016;51.228;-2.322;2022-12-10T01:07:20;-0.50;77.80
65406;DHT22;52016;51.228;-2.322;2022-12-10T01:11:02;-0.40;78.10
65406;DHT22;52016;51.228;-2.322;2022-12-10T01:14:43;-0.50;78.00
65406;DHT22;52016;51.228;-2.322;2022-12-10T01:18:25;-0.50;78.10
65406;DHT22;52016;51.228;-2.322;2022-12-10T01:22:07;-0.60;78.30
65406;DHT22;52016;51.228;-2.322;2022-12-10T01:25:49;-0.60;78.20
65406;DHT22;52016;51.228;-2.322;2022-12-10T01:29:31;-0.60;78.50
65406;DHT22;52016;51.228;-2.322;2022-12-10T01:33:13;-0.50;78.30
65406;DHT22;52016;51.228;-2.322;2022-12-10T01:36:55;-0.50;78.40
65406;DHT22;52016;51.228;-2.322;2022-12-10T01:40:38;-0.60;78.30
65406;DHT22;52016;51.228;-2.322;2022-12-10T01:48:02;-0.60;78.50
65406;DHT22;52016;51.228;-2.322;2022-12-10T01:51:52;-0.60;78.30
65406;DHT22;52016;51.228;-2.322;2022-12-10T01:55:47;-0.50;78.20
65406;DHT22;52016;51.228;-2.322;2022-12-10T01:59:30;-0.60;78.20
65406;DHT22;52016;51.228;-2.322;2022-12-10T02:03:17;-0.60;78.30
65406;DHT22;52016;51.228;-2.322;2022-12-10T02:07:14;-0.60;78.50
65406;DHT22;52016;51.228;-2.322;2022-12-10T02:11:28;-0.60;78.30
65406;DHT22;52016;51.228;-2.322;2022-12-10T02:19:25;-0.60;78.10
65406;DHT22;52016;51.228;-2.322;2022-12-10T02:23:12;-0.60;79.00
65406;DHT22;52016;51.228;-2.322;2022-12-10T02:27:16;-0.60;78.50
65406;DHT22;52016;51.228;-2.322;2022-12-10T02:31:00;-0.50;78.90
65406;DHT22;52016;51.228;-2.322;2022-12-10T02:34:45;-0.60;79.00
65406;DHT22;52016;51.228;-2.322;2022-12-10T02:38:35;-0.50;78.70
65406;DHT22;52016;51.228;-2.322;2022-12-10T02:42:19;-0.50;78.70
65406;DHT22;52016;51.228;-2.322;2022-12-10T02:46:04;-0.50;78.70
65406;DHT22;52016;51.228;-2.322;2022-12-10T02:49:50;-0.50;78.70
65406;DHT22;52016;51.228;-2.322;2022-12-10T02:53:41;-0.50;78.80
65406;DHT22;52016;51.228;-2.322;2022-12-10T02:57:27;-0.50;78.60
65406;DHT22;52016;51.228;-2.322;2022-12-10T03:09:04;-0.50;79.20
65406;DHT22;52016;51.228;-2.322;2022-12-10T03:12:49;-0.50;78.80
65406;DHT22;52016;51.228;-2.322;2022-12-10T03:16:36;-0.50;79.20
65406;DHT22;52016;51.228;-2.322;2022-12-10T03:20:18;-0.60;79.00
65406;DHT22;52016;51.228;-2.322;2022-12-10T03:24:01;-0.60;79.20
65406;DHT22;52016;51.228;-2.322;2022-12-10T03:27:45;-0.60;79.10
65406;DHT22;52016;51.228;-2.322;2022-12-10T03:31:29;-0.60;79.30
65406;DHT22;52016;51.228;-2.322;2022-12-10T03:35:13;-0.60;79.00
65406;DHT22;52016;51.228;-2.322;2022-12-10T03:38:56;-0.60;79.30
65406;DHT22;52016;51.228;-2.322;2022-12-10T03:42:39;-0.60;79.10
65406;DHT22;52016;51.228;-2.322;2022-12-10T03:46:22;-0.60;79.40
65406;DHT22;52016;51.228;-2.322;2022-12-10T03:50:05;-0.60;79.10
65406;DHT22;52016;51.228;-2.322;2022-12-10T03:53:48;-0.60;79.30
65406;DHT22;52016;51.228;-2.322;2022-12-10T03:57:31;-0.60;79.20
65406;DHT22;52016;51.228;-2.322;2022-12-10T04:01:14;-0.60;79.30
65406;DHT22;52016;51.228;-2.322;2022-12-10T04:04:56;-0.60;79.60
65406;DHT22;52016;51.228;-2.322;2022-12-10T04:08:38;-0.60;79.40
65406;DHT22;52016;51.228;-2.322;2022-12-10T04:12:20;-0.60;79.50
65406;DHT22;52016;51.228;-2.322;2022-12-10T04:16:02;-0.50;79.30
65406;DHT22;52016;51.228;-2.322;2022-12-10T04:20:03;-0.50;79.30
65406;DHT22;52016;51.228;-2.322;2022-12-10T04:23:45;-0.50;79.60
65406;DHT22;52016;51.228;-2.322;2022-12-10T04:27:46;-0.40;79.80
65406;DHT22;52016;51.228;-2.322;2022-12-10T04:31:28;-0.40;79.50
65406;DHT22;52016;51.228;-2.322;2022-12-10T04:35:10;-0.40;79.60
65406;DHT22;52016;51.228;-2.322;2022-12-10T04:38:52;-0.30;79.60
65406;DHT22;52016;51.228;-2.322;2022-12-10T04:42:34;-0.30;79.70
65406;DHT22;52016;51.228;-2.322;2022-12-10T04:46:16;-0.30;79.80
65406;DHT22;52016;51.228;-2.322;2022-12-10T04:49:58;-0.40;79.60
65406;DHT22;52016;51.228;-2.322;2022-12-10T04:53:40;-0.40;79.30
65406;DHT22;52016;51.228;-2.322;2022-12-10T04:57:22;-0.40;79.60
65406;DHT22;52016;51.228;-2.322;2022-12-10T05:01:06;-0.50;79.40
65406;DHT22;52016;51.228;-2.322;2022-12-10T05:04:48;-0.50;79.30
65406;DHT22;52016;51.228;-2.322;2022-12-10T05:08:31;-0.50;79.40
65406;DHT22;52016;51.228;-2.322;2022-12-10T05:12:13;-0.50;79.40
65406;DHT22;52016;51.228;-2.322;2022-12-10T05:15:55;-0.50;79.80
65406;DHT22;52016;51.228;-2.322;2022-12-10T05:19:37;-0.50;79.60
65406;DHT22;52016;51.228;-2.322;2022-12-10T05:23:19;-0.60;79.60
65406;DHT22;52016;51.228;-2.322;2022-12-10T05:27:10;-0.60;79.50
65406;DHT22;52016;51.228;-2.322;2022-12-10T05:30:52;-0.60;79.70
65406;DHT22;52016;51.228;-2.322;2022-12-10T05:34:34;-0.60;79.70
65406;DHT22;52016;51.228;-2.322;2022-12-10T05:38:16;-0.60;79.70
65406;DHT22;52016;51.228;-2.322;2022-12-10T05:41:58;-0.60;79.70
65406;DHT22;52016;51.228;-2.322;2022-12-10T05:45:40;-0.50;80.30
65406;DHT22;52016;51.228;-2.322;2022-12-10T05:49:22;-0.60;79.80
65406;DHT22;52016;51.228;-2.322;2022-12-10T05:53:04;-0.60;79.60
65406;DHT22;52016;51.228;-2.322;2022-12-10T05:56:46;-0.60;79.80
65406;DHT22;52016;51.228;-2.322;2022-12-10T06:00:28;-0.60;79.70
65406;DHT22;52016;51.228;-2.322;2022-12-10T06:04:10;-0.60;79.60
65406;DHT22;52016;51.228;-2.322;2022-12-10T06:07:52;-0.60;79.70
65406;DHT22;52016;51.228;-2.322;2022-12-10T06:11:35;-0.60;79.70
65406;DHT22;52016;51.228;-2.322;2022-12-10T06:15:17;-0.60;79.90
65406;DHT22;52016;51.228;-2.322;2022-12-10T06:18:59;-0.60;79.60
65406;DHT22;52016;51.228;-2.322;2022-12-10T06:22:41;-0.60;79.70
65406;DHT22;52016;51.228;-2.322;2022-12-10T06:26:25;-0.50;79.80
65406;DHT22;52016;51.228;-2.322;2022-12-10T06:30:08;-0.60;79.60
65406;DHT22;52016;51.228;-2.322;2022-12-10T06:33:52;-0.60;79.80
65406;DHT22;52016;51.228;-2.322;2022-12-10T06:37:35;-0.60;79.80
65406;DHT22;52016;51.228;-2.322;2022-12-10T06:41:18;-0.60;79.70
65406;DHT22;52016;51.228;-2.322;2022-12-10T06:45:02;-0.60;79.90
65406;DHT22;52016;51.228;-2.322;2022-12-10T06:48:44;-0.60;80.00
65406;DHT22;52016;51.228;-2.322;2022-12-10T06:52:26;-0.60;80.20
65406;DHT22;52016;51.228;-2.322;2022-12-10T06:56:12;-0.60;79.80
65406;DHT22;52016;51.228;-2.322;2022-12-10T06:59:54;-0.60;79.80
65406;DHT22;52016;51.228;-2.322;2022-12-10T07:03:36;-0.60;80.20
65406;DHT22;52016;51.228;-2.322;2022-12-10T07:07:18;-0.60;80.10
65406;DHT22;52016;51.228;-2.322;2022-12-10T07:11:04;-0.60;80.10
65406;DHT22;52016;51.228;-2.322;2022-12-10T07:14:46;-0.60;80.20
65406;DHT22;52016;51.228;-2.322;2022-12-10T07:18:28;-0.60;79.90
65406;DHT22;52016;51.228;-2.322;2022-12-10T07:22:10;-0.60;80.00
65406;DHT22;52016;51.228;-2.322;2022-12-10T07:25:54;-0.60;79.90
65406;DHT22;52016;51.228;-2.322;2022-12-10T07:29:36;-0.60;80.30
65406;DHT22;52016;51.228;-2.322;2022-12-10T07:33:18;-0.60;80.20
65406;DHT22;52016;51.228;-2.322;2022-12-10T07:37:00;-0.60;80.30
65406;DHT22;52016;51.228;-2.322;2022-12-10T07:40:42;-0.60;80.30
65406;DHT22;52016;51.228;-2.322;2022-12-10T07:44:25;-0.60;80.20
65406;DHT22;52016;51.228;-2.322;2022-12-10T07:48:08;-0.60;80.30
65406;DHT22;52016;51.228;-2.322;2022-12-10T07:51:50;-0.50;80.30
65406;DHT22;52016;51.228;-2.322;2022-12-10T07:55:32;-0.50;80.00
65406;DHT22;52016;51.228;-2.322;2022-12-10T07:59:14;-0.50;80.00
65406;DHT22;52016;51.228;-2.322;2022-12-10T08:02:56;-0.50;80.00
65406;DHT22;52016;51.228;-2.322;2022-12-10T08:06:38;-0.50;80.10
65406;DHT22;52016;51.228;-2.322;2022-12-10T08:10:20;-0.40;80.10
65406;DHT22;52016;51.228;-2.322;2022-12-10T08:14:02;-0.40;80.00
65406;DHT22;52016;51.228;-2.322;2022-12-10T08:17:44;-0.40;80.00
65406;DHT22;52016;51.228;-2.322;2022-12-10T08:21:29;-0.40;79.90
65406;DHT22;52016;51.228;-2.322;2022-12-10T08:25:11;-0.40;79.90
65406;DHT22;52016;51.228;-2.322;2022-12-10T08:28:54;-0.40;80.00
65406;DHT22;52016;51.228;-2.322;2022-12-10T08:32:36;-0.40;79.90
65406;DHT22;52016;51.228;-2.322;2022-12-10T08:36:19;-0.40;80.00
65406;DHT22;52016;51.228;-2.322;2022-12-10T08:40:01;-0.30;80.00
65406;DHT22;52016;51.228;-2.322;2022-12-10T08:43:44;-0.30;80.00
65406;DHT22;52016;51.228;-2.322;2022-12-10T08:47:26;-0.30;80.10
65406;DHT22;52016;51.228;-2.322;2022-12-10T08:51:11;-0.30;80.00
65406;DHT22;52016;51.228;-2.322;2022-12-10T08:54:54;-0.30;80.30
65406;DHT22;52016;51.228;-2.322;2022-12-10T08:58:37;-0.30;80.10
65406;DHT22;52016;51.228;-2.322;2022-12-10T09:02:19;-0.20;80.00
65406;DHT22;52016;51.228;-2.322;2022-12-10T09:06:07;-0.20;80.40
65406;DHT22;52016;51.228;-2.322;2022-12-10T09:09:50;-0.20;80.00
65406;DHT22;52016;51.228;-2.322;2022-12-10T09:13:32;-0.10;80.10
65406;DHT22;52016;51.228;-2.322;2022-12-10T09:17:14;-0.10;80.20
65406;DHT22;52016;51.228;-2.322;2022-12-10T09:20:56;-0.10;80.30
65406;DHT22;52016;51.228;-2.322;2022-12-10T09:24:38;0.00;80.30
65406;DHT22;52016;51.228;-2.322;2022-12-10T09:28:20;0.00;80.40
65406;DHT22;52016;51.228;-2.322;2022-12-10T09:32:02;0.10;80.60
65406;DHT22;52016;51.228;-2.322;2022-12-10T09:35:44;0.10;80.40
65406;DHT22;52016;51.228;-2.322;2022-12-10T09:39:26;0.10;80.30
65406;DHT22;52016;51.228;-2.322;2022-12-10T09:43:19;0.20;80.30
65406;DHT22;52016;51.228;-2.322;2022-12-10T09:47:08;0.20;80.30
65406;DHT22;52016;51.228;-2.322;2022-12-10T09:55:34;0.30;80.40
65406;DHT22;52016;51.228;-2.322;2022-12-10T09:58:55;0.30;80.50
65406;DHT22;52016;51.228;-2.322;2022-12-10T10:02:38;0.50;80.50
65406;DHT22;52016;51.228;-2.322;2022-12-10T10:06:21;0.50;80.70
65406;DHT22;52016;51.228;-2.322;2022-12-10T10:10:07;0.60;80.70
65406;DHT22;52016;51.228;-2.322;2022-12-10T10:14:20;0.70;80.90
65406;DHT22;52016;51.228;-2.322;2022-12-10T10:22:11;0.90;82.10
65406;DHT22;52016;51.228;-2.322;2022-12-10T10:25:53;0.80;81.70
65406;DHT22;52016;51.228;-2.322;2022-12-10T10:29:35;0.90;81.70
65406;DHT22;52016;51.228;-2.322;2022-12-10T10:33:17;0.90;81.40
65406;DHT22;52016;51.228;-2.322;2022-12-10T10:37:00;1.00;81.40
65406;DHT22;52016;51.228;-2.322;2022-12-10T10:40:49;1.00;81.20
65406;DHT22;52016;51.228;-2.322;2022-12-10T10:44:36;1.10;81.20
65406;DHT22;52016;51.228;-2.322;2022-12-10T10:48:22;1.20;81.30
65406;DHT22;52016;51.228;-2.322;2022-12-10T10:52:12;1.30;81.30
65406;DHT22;52016;51.228;-2.322;2022-12-10T10:55:58;1.40;81.30
65406;DHT22;52016;51.228;-2.322;2022-12-10T10:59:41;1.60;81.50
65406;DHT22;52016;51.228;-2.322;2022-12-10T11:03:24;1.80;81.80
65406;DHT22;52016;51.228;-2.322;2022-12-10T11:11:19;2.10;81.50
65406;DHT22;52016;51.228;-2.322;2022-12-10T11:19:04;2.30;81.80
65406;DHT22;52016;51.228;-2.322;2022-12-10T11:23:02;2.30;81.90
65406;DHT22;52016;51.228;-2.322;2022-12-10T11:26:57;2.30;81.70
65406;DHT22;52016;51.228;-2.322;2022-12-10T11:30:48;2.50;82.20
65406;DHT22;52016;51.228;-2.322;2022-12-10T11:50:36;3.90;82.50
65406;DHT22;52016;51.228;-2.322;2022-12-10T12:10:39;5.00;81.70
65406;DHT22;52016;51.228;-2.322;2022-12-10T12:14:53;4.80;80.80
65406;DHT22;52016;51.228;-2.322;2022-12-10T12:22:39;4.50;80.00
65406;DHT22;52016;51.228;-2.322;2022-12-10T12:26:30;4.30;80.30
65406;DHT22;52016;51.228;-2.322;2022-12-10T12:30:16;4.20;80.20
65406;DHT22;52016;51.228;-2.322;2022-12-10T12:45:59;3.90;79.50
65406;DHT22;52016;51.228;-2.322;2022-12-10T12:49:44;3.90;79.50
65406;DHT22;52016;51.228;-2.322;2022-12-10T12:53:26;3.90;79.40
65406;DHT22;52016;51.228;-2.322;2022-12-10T12:57:32;3.90;79.20
65406;DHT22;52016;51.228;-2.322;2022-12-10T13:02:19;3.80;79.10
65406;DHT22;52016;51.228;-2.322;2022-12-10T13:05:36;3.70;79.00
65406;DHT22;52016;51.228;-2.322;2022-12-10T13:09:26;3.60;78.80
65406;DHT22;52016;51.228;-2.322;2022-12-10T13:17:32;3.40;78.90
65406;DHT22;52016;51.228;-2.322;2022-12-10T13:21:27;3.30;78.90
65406;DHT22;52016;51.228;-2.322;2022-12-10T13:25:15;3.30;79.20
65406;DHT22;52016;51.228;-2.322;2022-12-10T13:29:25;3.30;79.30
65406;DHT22;52016;51.228;-2.322;2022-12-10T13:33:16;3.60;79.90
65406;DHT22;52016;51.228;-2.322;2022-12-10T13:37:04;4.10;80.50
65406;DHT22;52016;51.228;-2.322;2022-12-10T13:40:56;4.80;80.90
65406;DHT22;52016;51.228;-2.322;2022-12-10T13:45:26;5.40;80.70
65406;DHT22;52016;51.228;-2.322;2022-12-10T13:49:22;5.60;79.40
65406;DHT22;52016;51.228;-2.322;2022-12-10T13:57:04;5.00;78.80
65406;DHT22;52016;51.228;-2.322;2022-12-10T14:09:27;4.20;78.50
65406;DHT22;52016;51.228;-2.322;2022-12-10T14:13:14;4.00;78.50
65406;DHT22;52016;51.228;-2.322;2022-12-10T14:17:12;3.80;78.40
65406;DHT22;52016;51.228;-2.322;2022-12-10T14:20:55;3.70;78.40
65406;DHT22;52016;51.228;-2.322;2022-12-10T14:24:39;3.60;78.30
65406;DHT22;52016;51.228;-2.322;2022-12-10T14:28:24;3.60;78.30
65406;DHT22;52016;51.228;-2.322;2022-12-10T14:32:16;3.50;78.30
65406;DHT22;52016;51.228;-2.322;2022-12-10T14:35:59;3.40;78.40
65406;DHT22;52016;51.228;-2.322;2022-12-10T14:39:42;3.30;78.40
65406;DHT22;52016;51.228;-2.322;2022-12-10T14:47:19;3.30;78.40
65406;DHT22;52016;51.228;-2.322;2022-12-10T14:51:12;3.20;78.30
65406;DHT22;52016;51.228;-2.322;2022-12-10T14:54:56;3.20;78.40
65406;DHT22;52016;51.228;-2.322;2022-12-10T14:58:39;3.20;78.30
65406;DHT22;52016;51.228;-2.322;2022-12-10T15:02:37;3.10;78.50
65406;DHT22;52016;51.228;-2.322;2022-12-10T15:06:20;3.10;78.60
65406;DHT22;52016;51.228;-2.322;2022-12-10T15:10:13;3.10;78.40
65406;DHT22;52016;51.228;-2.322;2022-12-10T15:14:00;3.10;78.50
65406;DHT22;52016;51.228;-2.322;2022-12-10T15:17:59;3.00;78.60
65406;DHT22;52016;51.228;-2.322;2022-12-10T15:21:43;3.00;78.60
65406;DHT22;52016;51.228;-2.322;2022-12-10T15:25:29;2.90;78.50
65406;DHT22;52016;51.228;-2.322;2022-12-10T15:33:31;2.80;78.80
65406;DHT22;52016;51.228;-2.322;2022-12-10T15:48:58;2.60;78.80
65406;DHT22;52016;51.228;-2.322;2022-12-10T15:52:41;2.50;78.90
65406;DHT22;52016;51.228;-2.322;2022-12-10T15:56:23;2.40;78.90
65406;DHT22;52016;51.228;-2.322;2022-12-10T16:00:08;2.30;79.00
65406;DHT22;52016;51.228;-2.322;2022-12-10T16:03:59;2.30;79.10
65406;DHT22;52016;51.228;-2.322;2022-12-10T16:07:42;2.20;79.20
65406;DHT22;52016;51.228;-2.322;2022-12-10T16:11:24;2.20;79.20
65406;DHT22;52016;51.228;-2.322;2022-12-10T16:15:11;2.10;79.30
65406;DHT22;52016;51.228;-2.322;2022-12-10T16:18:56;2.10;79.30
65406;DHT22;52016;51.228;-2.322;2022-12-10T16:22:38;2.00;79.40
65406;DHT22;52016;51.228;-2.322;2022-12-10T16:26:22;2.00;79.60
65406;DHT22;52016;51.228;-2.322;2022-12-10T16:34:01;1.90;79.60
65406;DHT22;52016;51.228;-2.322;2022-12-10T16:37:44;1.80;79.90
65406;DHT22;52016;51.228;-2.322;2022-12-10T16:41:28;1.80;79.70
65406;DHT22;52016;51.228;-2.322;2022-12-10T16:45:31;1.70;79.70
65406;DHT22;52016;51.228;-2.322;2022-12-10T16:49:15;1.70;80.10
65406;DHT22;52016;51.228;-2.322;2022-12-10T16:52:57;1.60;79.80
65406;DHT22;52016;51.228;-2.322;2022-12-10T16:56:39;1.60;79.80
65406;DHT22;52016;51.228;-2.322;2022-12-10T17:00:24;1.60;79.90
65406;DHT22;52016;51.228;-2.322;2022-12-10T17:04:08;1.50;79.90
65406;DHT22;52016;51.228;-2.322;2022-12-10T17:07:51;1.50;80.00
65406;DHT22;52016;51.228;-2.322;2022-12-10T17:11:39;1.40;80.00
65406;DHT22;52016;51.228;-2.322;2022-12-10T17:15:30;1.40;80.10
65406;DHT22;52016;51.228;-2.322;2022-12-10T17:19:12;1.40;80.30
65406;DHT22;52016;51.228;-2.322;2022-12-10T17:22:55;1.40;80.20
65406;DHT22;52016;51.228;-2.322;2022-12-10T17:26:40;1.30;80.30
65406;DHT22;52016;51.228;-2.322;2022-12-10T17:30:24;1.30;80.30
65406;DHT22;52016;51.228;-2.322;2022-12-10T17:34:06;1.30;80.40
65406;DHT22;52016;51.228;-2.322;2022-12-10T17:37:48;1.30;80.50
65406;DHT22;52016;51.228;-2.322;2022-12-10T17:41:34;1.20;80.60
65406;DHT22;52016;51.228;-2.322;2022-12-10T17:45:19;1.20;80.50
65406;DHT22;52016;51.228;-2.322;2022-12-10T17:49:04;1.10;80.50
65406;DHT22;52016;51.228;-2.322;2022-12-10T17:52:46;1.10;81.00
65406;DHT22;52016;51.228;-2.322;2022-12-10T17:56:29;1.10;80.70
65406;DHT22;52016;51.228;-2.322;2022-12-10T18:00:14;1.00;80.70
65406;DHT22;52016;51.228;-2.322;2022-12-10T18:03:56;1.00;80.70
65406;DHT22;52016;51.228;-2.322;2022-12-10T18:07:38;0.90;80.40
65406;DHT22;52016;51.228;-2.322;2022-12-10T18:11:23;0.90;80.90
65406;DHT22;52016;51.228;-2.322;2022-12-10T18:15:06;0.90;80.70
65406;DHT22;52016;51.228;-2.322;2022-12-10T18:18:48;0.80;81.00
65406;DHT22;52016;51.228;-2.322;2022-12-10T18:22:30;0.90;81.10
65406;DHT22;52016;51.228;-2.322;2022-12-10T18:26:14;0.90;80.90
65406;DHT22;52016;51.228;-2.322;2022-12-10T18:29:56;0.80;80.70
65406;DHT22;52016;51.228;-2.322;2022-12-10T18:33:42;0.80;80.60
65406;DHT22;52016;51.228;-2.322;2022-12-10T18:37:24;0.80;81.00
65406;DHT22;52016;51.228;-2.322;2022-12-10T18:41:11;0.80;80.90
65406;DHT22;52016;51.228;-2.322;2022-12-10T18:44:53;0.80;80.90
65406;DHT22;52016;51.228;-2.322;2022-12-10T18:48:35;0.80;81.00
65406;DHT22;52016;51.228;-2.322;2022-12-10T18:52:17;0.80;81.00
65406;DHT22;52016;51.228;-2.322;2022-12-10T18:55:59;0.80;81.00
65406;DHT22;52016;51.228;-2.322;2022-12-10T18:59:41;0.80;80.90
65406;DHT22;52016;51.228;-2.322;2022-12-10T19:03:23;0.80;81.00
65406;DHT22;52016;51.228;-2.322;2022-12-10T19:07:05;0.80;81.20
65406;DHT22;52016;51.228;-2.322;2022-12-10T19:10:47;0.70;81.30
65406;DHT22;52016;51.228;-2.322;2022-12-10T19:14:29;0.70;81.20
65406;DHT22;52016;51.228;-2.322;2022-12-10T19:18:13;0.70;81.40
65406;DHT22;52016;51.228;-2.322;2022-12-10T19:21:56;0.60;81.30
65406;DHT22;52016;51.228;-2.322;2022-12-10T19:25:38;0.60;81.20
65406;DHT22;52016;51.228;-2.322;2022-12-10T19:29:21;0.60;81.30
65406;DHT22;52016;51.228;-2.322;2022-12-10T19:33:04;0.60;81.20
65406;DHT22;52016;51.228;-2.322;2022-12-10T19:36:47;0.60;81.30
65406;DHT22;52016;51.228;-2.322;2022-12-10T19:40:33;0.50;81.30
65406;DHT22;52016;51.228;-2.322;2022-12-10T19:44:15;0.50;81.20
65406;DHT22;52016;51.228;-2.322;2022-12-10T19:47:58;0.50;81.30
65406;DHT22;52016;51.228;-2.322;2022-12-10T19:51:41;0.40;81.30
65406;DHT22;52016;51.228;-2.322;2022-12-10T19:55:23;0.40;81.40
65406;DHT22;52016;51.228;-2.322;2022-12-10T19:59:12;0.40;81.50
65406;DHT22;52016;51.228;-2.322;2022-12-10T20:02:55;0.40;81.30
65406;DHT22;52016;51.228;-2.322;2022-12-10T20:06:42;0.30;81.40
65406;DHT22;52016;51.228;-2.322;2022-12-10T20:10:27;0.30;81.30
65406;DHT22;52016;51.228;-2.322;2022-12-10T20:14:10;0.30;81.50
65406;DHT22;52016;51.228;-2.322;2022-12-10T20:17:52;0.30;81.40
65406;DHT22;52016;51.228;-2.322;2022-12-10T20:21:34;0.30;81.40
65406;DHT22;52016;51.228;-2.322;2022-12-10T20:25:17;0.30;81.40
65406;DHT22;52016;51.228;-2.322;2022-12-10T20:29:00;0.30;81.60
65406;DHT22;52016;51.228;-2.322;2022-12-10T20:32:42;0.30;81.50
65406;DHT22;52016;51.228;-2.322;2022-12-10T20:36:26;0.30;81.50
65406;DHT22;52016;51.228;-2.322;2022-12-10T20:40:16;0.30;81.70
65406;DHT22;52016;51.228;-2.322;2022-12-10T20:44:15;0.30;81.70
65406;DHT22;52016;51.228;-2.322;2022-12-10T20:47:57;0.30;81.60
65406;DHT22;52016;51.228;-2.322;2022-12-10T20:51:41;0.30;81.60
65406;DHT22;52016;51.228;-2.322;2022-12-10T20:55:23;0.30;81.60
65406;DHT22;52016;51.228;-2.322;2022-12-10T20:59:06;0.30;81.90
65406;DHT22;52016;51.228;-2.322;2022-12-10T21:02:48;0.30;81.90
65406;DHT22;52016;51.228;-2.322;2022-12-10T21:06:31;0.30;81.80
65406;DHT22;52016;51.228;-2.322;2022-12-10T21:10:16;0.30;81.90
65406;DHT22;52016;51.228;-2.322;2022-12-10T21:14:17;0.30;82.00
65406;DHT22;52016;51.228;-2.322;2022-12-10T21:18:20;0.20;81.90
65406;DHT22;52016;51.228;-2.322;2022-12-10T21:22:02;0.20;81.60
65406;DHT22;52016;51.228;-2.322;2022-12-10T21:25:45;0.20;81.70
65406;DHT22;52016;51.228;-2.322;2022-12-10T21:29:28;0.20;81.70
65406;DHT22;52016;51.228;-2.322;2022-12-10T21:33:10;0.20;81.80
65406;DHT22;52016;51.228;-2.322;2022-12-10T21:36:52;0.20;81.90
65406;DHT22;52016;51.228;-2.322;2022-12-10T21:40:38;0.10;81.90
65406;DHT22;52016;51.228;-2.322;2022-12-10T21:44:20;0.10;81.80
65406;DHT22;52016;51.228;-2.322;2022-12-10T21:48:02;0.10;82.10
65406;DHT22;52016;51.228;-2.322;2022-12-10T21:51:44;0.10;81.90
65406;DHT22;52016;51.228;-2.322;2022-12-10T21:55:26;0.00;81.70
65406;DHT22;52016;51.228;-2.322;2022-12-10T21:59:11;0.00;81.60
65406;DHT22;52016;51.228;-2.322;2022-12-10T22:02:53;0.00;81.70
65406;DHT22;52016;51.228;-2.322;2022-12-10T22:06:35;0.00;81.80
65406;DHT22;52016;51.228;-2.322;2022-12-10T22:10:17;0.00;81.60
65406;DHT22;52016;51.228;-2.322;2022-12-10T22:13:59;-0.10;81.60
65406;DHT22;52016;51.228;-2.322;2022-12-10T22:17:41;-0.20;81.70
65406;DHT22;52016;51.228;-2.322;2022-12-10T22:21:23;-0.20;81.50
65406;DHT22;52016;51.228;-2.322;2022-12-10T22:25:05;-0.20;81.50
65406;DHT22;52016;51.228;-2.322;2022-12-10T22:28:48;-0.20;81.50
65406;DHT22;52016;51.228;-2.322;2022-12-10T22:32:31;-0.30;81.50
65406;DHT22;52016;51.228;-2.322;2022-12-10T22:36:13;-0.30;81.50
65406;DHT22;52016;51.228;-2.322;2022-12-10T22:39:55;-0.20;81.40
65406;DHT22;52016;51.228;-2.322;2022-12-10T22:43:37;-0.20;81.40
65406;DHT22;52016;51.228;-2.322;2022-12-10T22:47:31;-0.30;81.30
65406;DHT22;52016;51.228;-2.322;2022-12-10T22:51:14;-0.30;81.40
65406;DHT22;52016;51.228;-2.322;2022-12-10T22:54:56;-0.30;81.40
65406;DHT22;52016;51.228;-2.322;2022-12-10T22:58:38;-0.20;81.40
65406;DHT22;52016;51.228;-2.322;2022-12-10T23:02:21;-0.20;81.40
65406;DHT22;52016;51.228;-2.322;2022-12-10T23:06:04;-0.20;81.50
65406;DHT22;52016;51.228;-2.322;2022-12-10T23:09:46;-0.20;81.60
65406;DHT22;52016;51.228;-2.322;2022-12-10T23:13:28;-0.20;81.60
65406;DHT22;52016;51.228;-2.322;2022-12-10T23:17:16;-0.20;81.60
65406;DHT22;52016;51.228;-2.322;2022-12-10T23:20:59;-0.20;81.60
65406;DHT22;52016;51.228;-2.322;2022-12-10T23:24:42;-0.20;81.60
65406;DHT22;52016;51.228;-2.322;2022-12-10T23:28:24;-0.20;81.70
65406;DHT22;52016;51.228;-2.322;2022-12-10T23:32:06;-0.20;81.70
65406;DHT22;52016;51.228;-2.322;2022-12-10T23:35:48;-0.20;81.70
65406;DHT22;52016;51.228;-2.322;2022-12-10T23:39:30;-0.10;81.80
65406;DHT22;52016;51.228;-2.322;2022-12-10T23:43:12;-0.20;81.60
65406;DHT22;52016;51.228;-2.322;2022-12-10T23:46:54;-0.20;81.70
65406;DHT22;52016;51.228;-2.322;2022-12-10T23:50:37;-0.30;81.70
65406;DHT22;52016;51.228;-2.322;2022-12-10T23:54:19;-0.30;81.60
65406;DHT22;52016;51.228;-2.322;2022-12-10T23:58:01;-0.30;81.60
